createdAt,value
2023-05-03T00:00:55.641Z,2.69
2023-05-03T00:01:55.657Z,2.80
2023-05-03T00:02:55.701Z,2.80
2023-05-03T00:03:55.634Z,2.82
2023-05-03T00:04:55.658Z,2.76
2023-05-03T00:05:55.647Z,2.79
2023-05-03T00:06:55.676Z,2.55
2023-05-03T00:07:55.623Z,2.81
2023-05-03T00:08:55.625Z,2.85
2023-05-03T00:09:55.618Z,2.99
2023-05-03T00:10:55.746Z,2.79
2023-05-03T00:11:55.612Z,3.02
2023-05-03T00:12:55.634Z,3.15
2023-05-03T00:13:55.612Z,2.55
2023-05-03T00:14:55.641Z,2.77
2023-05-03T00:15:55.641Z,2.31
2023-05-03T00:16:55.681Z,2.75
2023-05-03T00:17:55.672Z,3.42
2023-05-03T00:18:55.612Z,3.04
2023-05-03T00:19:55.668Z,2.86
2023-05-03T00:20:55.637Z,2.69
2023-05-03T00:21:55.610Z,2.78
2023-05-03T00:22:55.600Z,2.67
2023-05-03T00:23:55.603Z,2.85
2023-05-03T00:24:55.597Z,2.20
2023-05-03T00:25:55.613Z,2.55
2023-05-03T00:26:55.630Z,2.44
2023-05-03T00:27:55.665Z,2.79
2023-05-03T00:28:55.583Z,2.44
2023-05-03T00:29:55.581Z,2.69
2023-05-03T00:30:55.630Z,2.24
2023-05-03T00:31:55.595Z,2.50
2023-05-03T00:32:55.656Z,2.51
2023-05-03T00:33:55.579Z,3.25
2023-05-03T00:34:55.580Z,2.48
2023-05-03T00:35:55.599Z,2.74
2023-05-03T00:36:55.583Z,2.78
2023-05-03T00:37:55.594Z,2.29
2023-05-03T00:38:55.613Z,2.89
2023-05-03T00:39:55.639Z,2.78
2023-05-03T00:40:55.668Z,2.43
2023-05-03T00:41:55.688Z,2.50
2023-05-03T00:42:55.731Z,3.03
2023-05-03T00:43:55.732Z,2.82
2023-05-03T00:44:56.112Z,2.75
2023-05-03T00:46:04.884Z,2.68
2023-05-03T00:46:55.958Z,2.74
2023-05-03T00:47:55.813Z,2.93
2023-05-03T00:48:55.756Z,2.44
2023-05-03T00:49:55.763Z,2.55
2023-05-03T00:50:55.792Z,2.55
2023-05-03T00:51:55.764Z,2.47
2023-05-03T00:52:55.757Z,2.65
2023-05-03T00:53:55.762Z,2.40
2023-05-03T00:54:55.751Z,2.44
2023-05-03T00:55:55.791Z,2.51
2023-05-03T00:56:55.741Z,2.91
2023-05-03T00:57:55.740Z,2.73
2023-05-03T00:58:55.776Z,2.33
2023-05-03T00:59:55.737Z,2.49
2023-05-03T01:00:55.762Z,2.47
2023-05-03T01:01:55.777Z,2.79
2023-05-03T01:02:55.811Z,2.64
2023-05-03T01:03:55.846Z,3.05
2023-05-03T01:04:55.748Z,2.89
2023-05-03T01:05:55.811Z,2.37
2023-05-03T01:06:55.792Z,2.59
2023-05-03T01:07:55.768Z,2.66
2023-05-03T01:08:55.741Z,2.46
2023-05-03T01:09:55.731Z,2.85
2023-05-03T01:10:55.731Z,2.74
2023-05-03T01:11:55.755Z,2.24
2023-05-03T01:12:55.762Z,2.66
2023-05-03T01:13:55.734Z,3.07
2023-05-03T01:14:55.749Z,2.94
2023-05-03T01:15:55.773Z,2.47
2023-05-03T01:16:55.754Z,2.42
2023-05-03T01:17:55.763Z,2.46
2023-05-03T01:18:55.714Z,2.88
2023-05-03T01:19:55.715Z,2.64
2023-05-03T01:20:55.746Z,2.71
2023-05-03T01:21:55.745Z,2.41
2023-05-03T01:22:55.748Z,2.53
2023-05-03T01:23:55.738Z,3.18
2023-05-03T01:24:55.726Z,2.50
2023-05-03T01:25:55.722Z,2.22
2023-05-03T01:26:55.728Z,2.28
2023-05-03T01:27:55.753Z,2.27
2023-05-03T01:28:55.731Z,2.40
2023-05-03T01:29:55.720Z,2.43
2023-05-03T01:30:55.781Z,2.38
2023-05-03T01:31:55.867Z,2.55
2023-05-03T01:32:55.741Z,2.31
2023-05-03T01:33:55.707Z,2.45
2023-05-03T01:34:55.709Z,2.42
2023-05-03T01:35:55.758Z,2.80
2023-05-03T01:36:55.702Z,2.37
2023-05-03T01:37:55.696Z,2.78
2023-05-03T01:38:55.685Z,3.11
2023-05-03T01:39:55.686Z,2.34
2023-05-03T01:40:55.685Z,2.37
2023-05-03T01:41:55.682Z,2.55
2023-05-03T01:42:55.708Z,2.26
2023-05-03T01:43:55.677Z,2.34
2023-05-03T01:44:55.675Z,2.60
2023-05-03T01:45:55.739Z,2.96
2023-05-03T01:46:55.741Z,2.40
2023-05-03T01:47:55.885Z,2.62
2023-05-03T01:48:55.777Z,2.71
2023-05-03T01:49:55.817Z,2.90
2023-05-03T01:50:55.829Z,2.51
2023-05-03T01:51:55.849Z,2.69
2023-05-03T01:52:55.926Z,2.31
2023-05-03T01:53:55.910Z,2.59
2023-05-03T01:54:55.954Z,2.68
2023-05-03T01:55:55.974Z,2.30
2023-05-03T01:56:56.011Z,2.55
2023-05-03T01:57:56.046Z,2.68
2023-05-03T01:58:56.055Z,2.37
2023-05-03T01:59:56.089Z,2.78
2023-05-03T02:00:56.177Z,2.45
2023-05-03T02:01:56.143Z,2.26
2023-05-03T02:02:56.316Z,2.77
2023-05-03T02:03:56.266Z,2.59
2023-05-03T02:04:56.288Z,2.26
2023-05-03T02:05:56.266Z,2.41
2023-05-03T02:06:56.308Z,2.55
2023-05-03T02:07:56.320Z,2.37
2023-05-03T02:08:56.351Z,2.48
2023-05-03T02:09:56.375Z,2.55
2023-05-03T02:10:56.450Z,2.44
2023-05-03T02:11:56.434Z,2.48
2023-05-03T02:12:56.509Z,2.52
2023-05-03T02:13:56.529Z,2.83
2023-05-03T02:14:56.537Z,2.72
2023-05-03T02:15:56.564Z,2.65
2023-05-03T02:16:56.760Z,2.59
2023-05-03T02:17:56.727Z,2.98
2023-05-03T02:18:56.670Z,2.60
2023-05-03T02:19:56.692Z,2.80
2023-05-03T02:20:56.740Z,2.24
2023-05-03T02:21:56.756Z,2.61
2023-05-03T02:22:56.801Z,2.71
2023-05-03T02:23:56.800Z,2.50
2023-05-03T02:24:56.849Z,2.54
2023-05-03T02:25:56.872Z,2.73
2023-05-03T02:26:56.973Z,2.44
2023-05-03T02:27:56.938Z,2.53
2023-05-03T02:28:57.016Z,2.50
2023-05-03T02:29:57.007Z,2.58
2023-05-03T02:30:57.137Z,2.69
2023-05-03T02:31:57.072Z,2.71
2023-05-03T02:32:57.180Z,2.60
2023-05-03T02:33:57.188Z,2.52
2023-05-03T02:34:57.210Z,2.38
2023-05-03T02:35:57.212Z,2.50
2023-05-03T02:36:57.257Z,2.45
2023-05-03T02:37:57.292Z,2.57
2023-05-03T02:38:57.335Z,2.42
2023-05-03T02:39:57.367Z,2.75
2023-05-03T02:40:57.394Z,2.80
2023-05-03T02:41:57.443Z,2.32
2023-05-03T02:42:57.455Z,2.41
2023-05-03T02:43:57.486Z,2.72
2023-05-03T02:44:57.517Z,2.37
2023-05-03T02:45:57.604Z,2.47
2023-05-03T02:46:57.570Z,2.30
2023-05-03T02:47:57.641Z,2.31
2023-05-03T02:48:57.659Z,2.53
2023-05-03T02:49:57.674Z,2.65
2023-05-03T02:50:57.728Z,2.91
2023-05-03T02:51:57.730Z,2.48
2023-05-03T02:52:57.781Z,2.56
2023-05-03T02:53:57.798Z,2.44
2023-05-03T02:54:57.828Z,2.66
2023-05-03T02:55:57.848Z,1.95
2023-05-03T02:56:57.886Z,2.70
2023-05-03T02:57:57.918Z,2.54
2023-05-03T02:58:57.952Z,2.21
2023-05-03T02:59:57.983Z,2.12
2023-05-03T03:00:58.019Z,2.18
2023-05-03T03:01:58.150Z,2.62
2023-05-03T03:02:58.204Z,2.71
2023-05-03T03:03:58.242Z,2.31
2023-05-03T03:04:58.140Z,2.58
2023-05-03T03:05:58.179Z,2.71
2023-05-03T03:06:58.242Z,2.22
2023-05-03T03:07:58.212Z,2.67
2023-05-03T03:08:58.254Z,2.27
2023-05-03T03:09:58.288Z,2.03
2023-05-03T03:10:58.316Z,2.32
2023-05-03T03:11:58.344Z,2.71
2023-05-03T03:12:58.371Z,2.34
2023-05-03T03:13:58.399Z,2.40
2023-05-03T03:14:58.435Z,2.07
2023-05-03T03:15:58.489Z,2.39
2023-05-03T03:16:58.503Z,2.14
2023-05-03T03:17:58.576Z,2.42
2023-05-03T03:18:58.557Z,2.30
2023-05-03T03:19:58.574Z,2.24
2023-05-03T03:20:58.601Z,2.69
2023-05-03T03:21:58.625Z,2.39
2023-05-03T03:22:58.695Z,2.72
2023-05-03T03:23:58.674Z,2.40
2023-05-03T03:24:58.701Z,2.48
2023-05-03T03:25:58.769Z,2.31
2023-05-03T03:26:58.746Z,2.52
2023-05-03T03:27:58.814Z,2.03
2023-05-03T03:28:58.839Z,2.23
2023-05-03T03:29:58.849Z,2.57
2023-05-03T03:30:58.880Z,2.09
2023-05-03T03:31:59.088Z,1.84
2023-05-03T03:32:58.998Z,2.18
2023-05-03T03:33:58.977Z,2.21
2023-05-03T03:34:59.009Z,2.36
2023-05-03T03:35:59.052Z,2.69
2023-05-03T03:36:59.073Z,2.38
2023-05-03T03:37:59.114Z,3.01
2023-05-03T03:38:59.186Z,2.46
2023-05-03T03:39:59.176Z,2.40
2023-05-03T03:40:59.223Z,2.04
2023-05-03T03:41:59.257Z,2.41
2023-05-03T03:42:59.298Z,2.61
2023-05-03T03:43:59.323Z,2.19
2023-05-03T03:44:59.365Z,2.18
2023-05-03T03:45:59.391Z,2.39
2023-05-03T03:46:59.479Z,2.91
2023-05-03T03:47:59.505Z,2.32
2023-05-03T03:48:59.522Z,2.59
2023-05-03T03:49:59.525Z,2.33
2023-05-03T03:50:59.564Z,2.48
2023-05-03T03:51:59.595Z,2.61
2023-05-03T03:52:59.626Z,2.45
2023-05-03T03:53:59.689Z,2.31
2023-05-03T03:54:59.726Z,2.43
2023-05-03T03:55:59.728Z,2.63
2023-05-03T03:56:59.776Z,2.53
2023-05-03T03:57:59.806Z,2.69
2023-05-03T03:58:59.846Z,2.46
2023-05-03T03:59:59.978Z,2.37
2023-05-03T04:00:59.920Z,2.73
2023-05-03T04:02:00.016Z,2.68
2023-05-03T04:03:00.064Z,2.71
2023-05-03T04:04:00.091Z,2.68
2023-05-03T04:05:00.064Z,2.63
2023-05-03T04:06:00.165Z,2.10
2023-05-03T04:07:00.152Z,2.61
2023-05-03T04:08:00.170Z,2.82
2023-05-03T04:09:00.204Z,2.46
2023-05-03T04:10:00.514Z,2.50
2023-05-03T04:11:00.297Z,2.40
2023-05-03T04:12:00.318Z,2.55
2023-05-03T04:13:00.344Z,2.32
2023-05-03T04:14:00.377Z,2.43
2023-05-03T04:15:00.416Z,2.65
2023-05-03T04:16:01.390Z,2.48
2023-05-03T04:17:00.486Z,2.19
2023-05-03T04:18:00.504Z,2.40
2023-05-03T04:19:00.468Z,2.49
2023-05-03T04:20:00.828Z,2.43
2023-05-03T04:21:00.448Z,2.66
2023-05-03T04:22:00.453Z,2.75
2023-05-03T04:23:00.451Z,2.82
2023-05-03T04:24:00.446Z,2.58
2023-05-03T04:25:00.447Z,2.42
2023-05-03T04:26:01.338Z,2.51
2023-05-03T04:27:00.462Z,2.68
2023-05-03T04:28:00.440Z,2.70
2023-05-03T04:29:00.434Z,2.64
2023-05-03T04:30:00.448Z,2.55
2023-05-03T04:31:00.485Z,2.43
2023-05-03T04:32:00.412Z,2.80
2023-05-03T04:33:00.432Z,2.69
2023-05-03T04:34:00.411Z,2.73
2023-05-03T04:35:00.412Z,2.83
2023-05-03T04:36:00.424Z,2.61
2023-05-03T04:37:00.411Z,2.62
2023-05-03T04:38:00.417Z,2.39
2023-05-03T04:39:00.418Z,2.58
2023-05-03T04:40:00.535Z,2.42
2023-05-03T04:41:00.408Z,2.66
2023-05-03T04:42:00.411Z,2.16
2023-05-03T04:43:00.424Z,2.69
2023-05-03T04:44:00.404Z,2.45
2023-05-03T04:45:00.394Z,2.50
2023-05-03T04:46:00.482Z,2.80
2023-05-03T04:47:00.392Z,2.01
2023-05-03T04:48:00.464Z,2.51
2023-05-03T04:49:00.407Z,3.06
2023-05-03T04:50:00.457Z,2.39
2023-05-03T04:51:00.380Z,2.25
2023-05-03T04:52:00.372Z,2.72
2023-05-03T04:53:00.406Z,2.81
2023-05-03T04:54:00.368Z,2.91
2023-05-03T04:55:00.367Z,2.63
2023-05-03T04:56:00.374Z,2.36
2023-05-03T04:57:00.367Z,2.56
2023-05-03T04:58:00.356Z,3.03
2023-05-03T04:59:01.344Z,2.94
2023-05-03T05:00:00.456Z,2.87
2023-05-03T05:01:00.359Z,2.98
2023-05-03T05:02:00.504Z,3.29
2023-05-03T05:03:00.500Z,2.94
2023-05-03T05:04:00.685Z,2.36
2023-05-03T05:05:00.471Z,2.89
2023-05-03T05:06:00.521Z,2.99
2023-05-03T05:07:00.578Z,3.00
2023-05-03T05:08:00.616Z,2.78
2023-05-03T05:09:00.676Z,3.05
2023-05-03T05:10:00.955Z,2.78
2023-05-03T05:11:00.761Z,2.52
2023-05-03T05:12:00.800Z,2.77
2023-05-03T05:13:00.875Z,2.98
2023-05-03T05:14:00.898Z,3.28
2023-05-03T05:15:00.988Z,2.85
2023-05-03T05:16:01.328Z,3.02
2023-05-03T05:17:01.048Z,3.63
2023-05-03T05:18:01.183Z,2.93
2023-05-03T05:19:01.328Z,2.51
2023-05-03T05:20:01.592Z,2.67
2023-05-03T05:21:01.223Z,3.38
2023-05-03T05:22:01.264Z,3.18
2023-05-03T05:23:01.314Z,3.27
2023-05-03T05:24:01.376Z,4.72
2023-05-03T05:25:01.413Z,3.11
2023-05-03T05:26:01.462Z,3.42
2023-05-03T05:27:01.512Z,3.08
2023-05-03T05:28:01.570Z,3.50
2023-05-03T05:29:01.625Z,3.56
2023-05-03T05:30:02.381Z,2.95
2023-05-03T05:31:01.862Z,3.50
2023-05-03T05:32:01.909Z,3.33
2023-05-03T05:33:01.830Z,3.13
2023-05-03T05:34:01.856Z,2.92
2023-05-03T05:35:01.903Z,3.51
2023-05-03T05:36:01.950Z,3.30
2023-05-03T05:37:01.997Z,3.07
2023-05-03T05:38:02.041Z,3.32
2023-05-03T05:39:02.094Z,2.80
2023-05-03T05:40:02.449Z,2.75
2023-05-03T05:41:03.162Z,3.09
2023-05-03T05:42:02.179Z,3.08
2023-05-03T05:43:02.336Z,2.91
2023-05-03T05:44:02.184Z,3.74
2023-05-03T05:45:02.183Z,3.52
2023-05-03T05:46:02.202Z,3.08
2023-05-03T05:47:02.407Z,3.94
2023-05-03T05:48:02.212Z,3.14
2023-05-03T05:49:02.173Z,3.13
2023-05-03T05:50:02.948Z,3.34
2023-05-03T05:51:02.183Z,3.62
2023-05-03T05:52:02.337Z,3.50
2023-05-03T05:53:02.164Z,2.94
2023-05-03T05:54:02.161Z,4.29
2023-05-03T05:55:02.153Z,4.36
2023-05-03T05:56:02.156Z,3.56
2023-05-03T05:57:02.346Z,4.03
2023-05-03T05:58:02.340Z,4.06
2023-05-03T05:59:02.145Z,3.93
2023-05-03T06:00:02.454Z,4.21
2023-05-03T06:01:02.139Z,4.33
2023-05-03T06:02:02.438Z,3.23
2023-05-03T06:03:02.225Z,3.30
2023-05-03T06:04:02.095Z,3.75
2023-05-03T06:05:02.193Z,3.49
2023-05-03T06:06:02.193Z,3.58
2023-05-03T06:07:02.352Z,3.34
2023-05-03T06:08:02.099Z,2.99
2023-05-03T06:09:09.750Z,3.23
2023-05-03T06:10:02.517Z,3.52
2023-05-03T06:11:02.068Z,3.18
2023-05-03T06:12:02.035Z,3.47
2023-05-03T06:13:02.045Z,3.02
2023-05-03T06:14:02.349Z,3.51
2023-05-03T06:15:03.108Z,3.20
2023-05-03T06:16:01.998Z,3.02
2023-05-03T06:17:02.021Z,2.83
2023-05-03T06:18:02.006Z,3.07
2023-05-03T06:19:02.446Z,2.90
2023-05-03T06:20:02.266Z,2.53
2023-05-03T07:20:27.825Z,2.15
2023-05-03T07:21:27.699Z,2.44
2023-05-03T11:30:46.977Z,3.08
2023-05-03T11:31:47.934Z,2.34
2023-05-03T11:32:47.950Z,2.76
2023-05-03T11:33:48.324Z,2.50
2023-05-03T11:34:47.834Z,2.35
2023-05-03T11:35:47.831Z,3.04
2023-05-03T11:36:47.807Z,2.44
2023-05-03T11:37:47.785Z,2.26
2023-05-03T11:38:47.744Z,2.32
2023-05-03T11:39:47.737Z,2.70
2023-05-03T11:40:47.713Z,2.12
2023-05-03T11:41:47.686Z,2.07
2023-05-03T11:42:47.675Z,2.14
2023-05-03T11:43:48.494Z,2.26
2023-05-03T11:44:47.670Z,2.84
2023-05-03T11:45:47.744Z,2.52
2023-05-03T11:46:47.837Z,2.38
2023-05-03T11:47:47.630Z,1.94
2023-05-03T11:48:47.584Z,2.39
2023-05-03T11:49:47.609Z,2.31
2023-05-03T11:50:47.556Z,2.15
2023-05-03T11:51:49.881Z,2.09
2023-05-03T11:52:47.482Z,2.05
2023-05-03T11:53:47.498Z,2.30
2023-05-03T11:54:47.725Z,1.94
2023-05-03T11:55:47.444Z,2.16
2023-05-03T11:56:47.432Z,2.61
2023-05-03T11:57:47.489Z,2.16
2023-05-03T11:58:47.398Z,1.92
2023-05-03T11:59:47.383Z,1.95
2023-05-03T12:00:47.416Z,1.90
2023-05-03T12:01:47.307Z,1.85
2023-05-03T12:02:47.512Z,1.91
2023-05-03T12:03:47.524Z,2.37
2023-05-03T12:04:47.876Z,1.89
2023-05-03T12:05:48.167Z,1.77
2023-05-03T12:06:47.631Z,1.91
2023-05-03T12:07:47.743Z,2.32
2023-05-03T12:08:47.460Z,2.06
2023-05-03T12:09:59.573Z,2.05
2023-05-03T12:10:47.697Z,1.96
2023-05-03T12:11:48.107Z,2.22
2023-05-03T12:12:50.017Z,2.10
2023-05-03T12:13:48.007Z,2.51
2023-05-03T12:14:47.483Z,2.01
2023-05-03T12:15:55.099Z,2.05
2023-05-03T12:16:47.340Z,2.16
2023-05-03T12:17:49.599Z,1.83
2023-05-03T12:18:47.817Z,2.04
2023-05-03T12:19:48.835Z,2.10
2023-05-03T12:21:54.926Z,1.78
2023-05-03T12:22:49.353Z,2.17
2023-05-03T12:23:48.634Z,1.76
2023-05-03T12:24:49.324Z,2.08
2023-05-03T12:25:49.183Z,1.89
2023-05-03T12:26:48.855Z,1.82
2023-05-03T12:27:52.656Z,2.23
2023-05-03T12:28:47.078Z,1.63
2023-05-03T12:29:47.753Z,1.53
2023-05-03T12:30:47.177Z,2.49
2023-05-03T12:31:49.237Z,2.16
2023-05-03T12:32:47.094Z,1.66
2023-05-03T12:34:00.491Z,2.51
2023-05-03T12:34:47.321Z,2.09
2023-05-03T12:35:48.331Z,2.08
2023-05-03T12:36:48.980Z,1.94
2023-05-03T12:37:49.459Z,2.32
2023-05-03T12:38:50.401Z,1.79
2023-05-03T12:39:53.974Z,1.98
2023-05-03T12:40:47.185Z,1.63
2023-05-03T12:42:46.238Z,2.24
2023-05-03T12:43:47.769Z,1.70
2023-05-03T12:45:03.158Z,2.15
2023-05-03T12:45:55.570Z,1.78
2023-05-03T12:46:47.022Z,1.64
2023-05-03T12:47:49.984Z,1.78
2023-05-03T12:48:47.394Z,1.56
2023-05-03T12:49:47.074Z,1.69
2023-05-03T12:50:49.317Z,2.21
2023-05-03T12:51:55.593Z,2.08
2023-05-03T12:52:47.057Z,2.01
2023-05-03T12:53:47.626Z,1.77
2023-05-03T12:55:51.026Z,1.87
2023-05-03T12:56:48.176Z,1.71
2023-05-03T12:57:56.510Z,1.48
2023-05-03T12:59:07.318Z,1.79
2023-05-03T13:01:07.428Z,2.18
2023-05-03T13:02:41.636Z,1.74
2023-05-03T13:03:58.536Z,2.03
2023-05-03T13:05:46.013Z,2.06
2023-05-03T13:06:47.151Z,2.34
2023-05-03T13:07:48.428Z,2.12
2023-05-03T13:08:50.058Z,2.18
2023-05-03T13:10:46.643Z,1.98
2023-05-03T13:11:48.304Z,1.86
2023-05-03T13:12:46.493Z,1.81
2023-05-03T13:13:46.536Z,2.04
2023-05-03T13:14:46.454Z,1.90
2023-05-03T13:15:46.428Z,1.81
2023-05-03T13:16:46.535Z,2.26
2023-05-03T13:17:47.315Z,1.87
2023-05-03T13:18:46.391Z,2.11
2023-05-03T13:19:46.365Z,1.76
2023-05-03T13:20:46.345Z,1.54
2023-05-03T13:21:46.324Z,1.67
2023-05-03T13:22:46.375Z,1.88
2023-05-03T13:23:47.885Z,1.79
2023-05-03T13:24:46.521Z,1.81
2023-05-03T13:25:46.503Z,2.02
2023-05-03T13:26:46.540Z,1.99
2023-05-03T13:27:46.513Z,1.69
2023-05-03T13:28:46.522Z,1.78
2023-05-03T13:29:48.927Z,1.85
2023-05-03T13:30:46.511Z,1.60
2023-05-03T13:31:46.520Z,2.02
2023-05-03T13:32:46.512Z,1.61
2023-05-03T13:33:46.478Z,1.89
2023-05-03T13:34:46.454Z,1.42
2023-05-03T13:35:48.165Z,1.56
2023-05-03T13:36:46.423Z,1.71
2023-05-03T13:37:46.414Z,1.67
2023-05-03T13:38:46.520Z,1.65
2023-05-03T13:39:46.806Z,1.92
2023-05-03T13:40:46.411Z,1.76
2023-05-03T13:41:48.111Z,1.63
2023-05-03T13:42:46.363Z,1.77
2023-05-03T13:43:46.345Z,2.04
2023-05-03T13:44:46.357Z,2.13
2023-05-03T13:45:46.355Z,1.36
2023-05-03T13:46:46.314Z,1.68
2023-05-03T13:48:45.352Z,1.77
2023-05-03T13:49:46.317Z,1.88
2023-05-03T13:50:46.311Z,1.79
2023-05-03T13:51:46.311Z,1.52
2023-05-03T13:52:46.303Z,1.85
2023-05-03T13:53:46.255Z,1.91
2023-05-03T13:54:46.281Z,1.63
2023-05-03T13:55:46.241Z,1.70
2023-05-03T13:56:46.265Z,1.59
2023-05-03T13:57:46.244Z,1.47
2023-05-03T13:58:46.213Z,2.21
2023-05-03T13:59:46.215Z,1.90
2023-05-03T14:00:46.188Z,1.98
2023-05-03T14:01:46.218Z,1.68
2023-05-03T14:02:46.217Z,1.79
2023-05-03T14:03:46.243Z,1.76
2023-05-03T14:04:46.146Z,1.72
2023-05-03T14:05:46.137Z,1.84
2023-05-03T14:06:46.149Z,1.43
2023-05-03T14:07:46.114Z,1.47
2023-05-03T14:08:46.118Z,1.71
2023-05-03T14:09:46.254Z,1.70
2023-05-03T14:10:46.114Z,1.41
2023-05-03T14:11:46.092Z,2.17
2023-05-03T14:12:46.159Z,1.64
2023-05-03T14:13:56.427Z,1.83
2023-05-03T14:14:46.138Z,1.59
2023-05-03T14:15:46.091Z,1.97
2023-05-03T14:16:46.032Z,2.08
2023-05-03T14:17:46.036Z,1.94
2023-05-03T14:18:45.973Z,2.20
2023-05-03T14:19:46.041Z,1.85
2023-05-03T14:20:46.001Z,1.88
2023-05-03T14:21:45.926Z,2.28
2023-05-03T14:22:45.927Z,2.54
2023-05-03T14:23:45.907Z,2.28
2023-05-03T14:24:45.886Z,1.83
2023-05-03T14:25:45.917Z,2.32
2023-05-03T14:26:45.893Z,1.99
2023-05-03T14:27:45.836Z,1.91
2023-05-03T14:28:45.825Z,1.92
2023-05-03T14:29:45.811Z,2.10
2023-05-03T14:30:45.809Z,2.06
2023-05-03T14:31:45.908Z,1.96
2023-05-03T14:32:45.792Z,1.91
2023-05-03T14:33:45.751Z,1.65
2023-05-03T14:34:45.734Z,2.02
2023-05-03T14:35:45.730Z,2.03
2023-05-03T14:36:45.722Z,1.86
2023-05-03T14:37:45.711Z,2.01
2023-05-03T14:38:45.692Z,2.29
2023-05-03T14:39:45.677Z,2.12
2023-05-03T14:40:45.664Z,2.12
2023-05-03T14:41:45.669Z,1.88
2023-05-03T14:42:45.664Z,1.95
2023-05-03T14:43:45.635Z,2.06
2023-05-03T14:44:45.636Z,1.62
2023-05-03T14:45:45.638Z,2.22
2023-05-03T14:46:45.656Z,2.14
2023-05-03T14:47:45.612Z,2.17
2023-05-03T14:48:45.588Z,2.19
2023-05-03T14:49:45.580Z,2.33
2023-05-03T14:50:45.561Z,1.95
2023-05-03T14:51:45.550Z,1.88
2023-05-03T14:52:45.552Z,1.77
2023-05-03T14:53:45.542Z,2.13
2023-05-03T14:54:45.523Z,2.16
2023-05-03T14:55:45.572Z,2.13
2023-05-03T14:56:45.532Z,1.80
2023-05-03T14:57:45.493Z,1.76
2023-05-03T14:58:45.622Z,1.86
2023-05-03T14:59:45.470Z,2.19
2023-05-03T15:00:45.493Z,1.87
2023-05-03T15:01:45.473Z,2.29
2023-05-03T15:02:45.534Z,1.83
2023-05-03T15:03:45.433Z,2.30
2023-05-03T15:04:45.460Z,2.18
2023-05-03T15:05:45.498Z,2.23
2023-05-03T15:06:45.538Z,2.04
2023-05-03T15:07:45.553Z,2.50
2023-05-03T15:08:45.587Z,2.07
2023-05-03T15:09:45.638Z,1.95
2023-05-03T15:10:45.663Z,1.94
2023-05-03T15:11:45.701Z,2.27
2023-05-03T15:12:45.802Z,1.97
2023-05-03T15:13:45.785Z,2.11
2023-05-03T15:14:45.812Z,2.25
2023-05-03T15:15:46.283Z,2.21
2023-05-03T15:16:45.911Z,1.91
2023-05-03T15:17:45.926Z,2.38
2023-05-03T15:18:45.905Z,1.69
2023-05-03T15:19:45.935Z,1.83
2023-05-03T15:20:45.966Z,1.93
2023-05-03T15:21:46.006Z,2.04
2023-05-03T15:22:46.037Z,2.28
2023-05-03T15:23:46.069Z,2.18
2023-05-03T15:24:46.105Z,2.09
2023-05-03T15:25:46.125Z,2.05
2023-05-03T15:26:46.152Z,2.40
2023-05-03T15:27:46.202Z,2.44
2023-05-03T15:28:46.218Z,2.06
2023-05-03T15:29:46.256Z,2.60
2023-05-03T15:30:46.373Z,2.13
2023-05-03T15:31:46.302Z,1.81
2023-05-03T15:32:46.368Z,2.33
2023-05-03T15:33:46.335Z,2.12
2023-05-03T15:34:46.355Z,2.00
2023-05-03T15:35:46.385Z,2.48
2023-05-03T15:36:46.410Z,2.47
2023-05-03T15:37:46.440Z,2.13
2023-05-03T15:38:46.462Z,2.61
2023-05-03T15:39:46.500Z,2.03
2023-05-03T15:40:46.513Z,2.26
2023-05-03T15:41:46.543Z,2.44
2023-05-03T15:42:46.576Z,2.15
2023-05-03T15:43:46.658Z,2.75
2023-05-03T15:44:46.624Z,2.44
2023-05-03T15:45:46.669Z,2.30
2023-05-03T15:46:46.757Z,2.88
2023-05-03T15:47:46.720Z,2.33
2023-05-03T15:48:46.709Z,2.35
2023-05-03T15:49:46.721Z,2.27
2023-05-03T15:50:46.739Z,2.52
2023-05-03T15:51:46.770Z,2.16
2023-05-03T15:52:47.014Z,2.22
2023-05-03T15:53:46.830Z,2.62
2023-05-03T15:54:46.841Z,2.51
2023-05-03T15:55:46.873Z,2.30
2023-05-03T15:56:46.881Z,2.31
2023-05-03T15:57:46.894Z,2.18
2023-05-03T15:58:48.325Z,2.66
2023-05-03T15:59:46.902Z,2.33
2023-05-03T16:00:46.908Z,2.30
2023-05-03T16:01:46.933Z,2.53
2023-05-03T16:02:46.984Z,2.58
2023-05-03T16:03:46.898Z,2.57
2023-05-03T16:04:48.351Z,2.34
2023-05-03T16:05:46.908Z,2.32
2023-05-03T16:06:46.873Z,2.33
2023-05-03T16:07:46.913Z,2.71
2023-05-03T16:08:46.864Z,2.74
2023-05-03T16:09:46.919Z,2.49
2023-05-03T16:10:46.849Z,2.33
2023-05-03T16:11:47.678Z,2.61
2023-05-03T16:12:46.900Z,2.70
2023-05-03T16:13:46.836Z,2.76
2023-05-03T16:14:46.834Z,2.91
2023-05-03T16:15:46.891Z,2.74
2023-05-03T16:16:48.434Z,2.59
2023-05-03T16:17:46.829Z,2.62
2023-05-03T16:18:46.820Z,2.52
2023-05-03T16:19:46.797Z,2.89
2023-05-03T16:20:46.781Z,2.68
2023-05-03T16:21:46.766Z,2.67
2023-05-03T16:22:48.509Z,2.69
2023-05-03T16:23:46.744Z,3.06
2023-05-03T16:24:46.739Z,2.81
2023-05-03T16:25:46.718Z,2.70
2023-05-03T16:26:46.708Z,2.49
2023-05-03T16:27:46.697Z,3.24
2023-05-03T16:28:48.197Z,2.49
2023-05-03T16:29:46.669Z,2.61
2023-05-03T16:30:46.666Z,2.55
2023-05-03T16:31:46.829Z,3.46
2023-05-03T16:32:46.709Z,2.58
2023-05-03T16:33:46.651Z,2.93
2023-05-03T16:34:47.524Z,2.38
2023-05-03T16:35:46.644Z,2.54
2023-05-03T16:36:46.632Z,2.82
2023-05-03T16:37:46.658Z,2.47
2023-05-03T16:38:46.609Z,2.47
2023-05-03T16:39:46.641Z,3.03
2023-05-03T16:40:46.602Z,2.97
2023-05-03T16:41:46.596Z,3.29
2023-05-03T16:42:46.600Z,3.07
2023-05-03T16:43:46.576Z,2.98
2023-05-03T16:44:46.582Z,3.11
2023-05-03T16:45:46.613Z,2.71
2023-05-03T16:46:46.561Z,2.65
2023-05-03T16:47:47.321Z,2.31
2023-05-03T16:48:46.547Z,2.75
2023-05-03T16:49:46.546Z,2.66
2023-05-03T16:50:46.562Z,3.29
2023-05-03T16:51:46.524Z,2.79
2023-05-03T16:52:46.522Z,2.53
2023-05-03T16:53:46.514Z,2.59
2023-05-03T16:54:46.511Z,2.97
2023-05-03T16:55:46.508Z,2.75
2023-05-03T16:56:46.511Z,2.86
2023-05-03T16:57:46.486Z,3.22
2023-05-03T16:58:46.499Z,2.64
2023-05-03T16:59:46.482Z,2.54
2023-05-03T17:00:46.513Z,2.76
2023-05-03T17:01:46.484Z,3.07
2023-05-03T17:02:46.515Z,2.78
2023-05-03T17:03:46.487Z,2.65
2023-05-03T17:04:46.426Z,2.96
2023-05-03T17:05:46.453Z,2.87
2023-05-03T17:06:46.513Z,2.92
2023-05-03T17:07:46.516Z,2.71
2023-05-03T17:08:46.543Z,3.12
2023-05-03T17:09:46.563Z,2.73
2023-05-03T17:10:46.605Z,2.75
2023-05-03T17:11:46.634Z,2.72
2023-05-03T17:12:46.677Z,2.71
2023-05-03T17:13:46.720Z,2.51
2023-05-03T17:14:46.736Z,2.62
2023-05-03T17:15:46.753Z,2.72
2023-05-03T17:16:46.859Z,2.97
2023-05-03T17:17:46.855Z,2.72
2023-05-03T17:18:46.845Z,2.90
2023-05-03T17:19:46.882Z,2.64
2023-05-03T17:20:46.914Z,2.49
2023-05-03T17:21:46.946Z,2.91
2023-05-03T17:22:46.989Z,2.44
2023-05-03T17:23:46.999Z,3.33
2023-05-03T17:24:47.025Z,2.75
2023-05-03T17:25:47.061Z,2.89
2023-05-03T17:26:47.096Z,3.15
2023-05-03T17:27:47.136Z,2.92
2023-05-03T17:28:47.166Z,2.92
2023-05-03T17:29:47.203Z,3.00
2023-05-03T17:30:47.237Z,3.53
2023-05-03T17:31:47.285Z,2.85
2023-05-03T17:32:47.302Z,2.83
2023-05-03T17:33:47.351Z,2.46
2023-05-03T17:34:47.376Z,2.92
2023-05-03T17:35:47.409Z,2.85
2023-05-03T17:36:47.447Z,2.82
2023-05-03T17:37:47.490Z,2.42
2023-05-03T17:38:47.584Z,3.08
2023-05-03T17:39:47.555Z,2.60
2023-05-03T17:40:47.601Z,2.84
2023-05-03T17:41:47.642Z,2.49
2023-05-03T17:42:47.688Z,3.07
2023-05-03T17:43:49.579Z,3.02
2023-05-03T17:44:47.744Z,3.20
2023-05-03T17:45:47.772Z,2.75
2023-05-03T17:46:47.738Z,2.54
2023-05-03T17:47:47.719Z,2.59
2023-05-03T17:48:47.713Z,2.43
2023-05-03T17:49:47.686Z,2.77
2023-05-03T17:50:47.661Z,3.31
2023-05-03T17:51:47.659Z,3.40
2023-05-03T17:52:47.650Z,3.09
2023-05-03T17:53:47.652Z,2.84
2023-05-03T17:54:47.699Z,2.82
2023-05-03T17:55:47.679Z,2.81
2023-05-03T17:56:47.644Z,3.52
2023-05-03T17:57:47.619Z,2.60
2023-05-03T17:58:47.620Z,3.23
2023-05-03T17:59:47.605Z,2.90
2023-05-03T18:00:47.603Z,3.59
2023-05-03T18:01:47.611Z,3.47
2023-05-03T18:02:47.713Z,2.94
2023-05-03T18:03:47.690Z,2.30
2023-05-03T18:04:47.550Z,3.22
2023-05-03T18:05:47.542Z,3.13
2023-05-03T18:06:47.536Z,2.80
2023-05-03T18:07:47.524Z,3.23
2023-05-03T18:08:47.536Z,3.45
2023-05-03T18:09:47.519Z,2.94
2023-05-03T18:10:47.558Z,3.11
2023-05-03T18:11:47.500Z,2.22
2023-05-03T18:12:47.539Z,2.87
2023-05-03T18:13:47.486Z,2.88
2023-05-03T18:14:47.462Z,3.60
2023-05-03T18:15:47.541Z,2.99
2023-05-03T18:16:47.558Z,2.88
2023-05-03T18:17:47.617Z,3.12
2023-05-03T18:18:47.616Z,2.98
2023-05-03T18:19:47.657Z,2.54
2023-05-03T18:20:47.720Z,2.77
2023-05-03T18:21:47.749Z,2.79
2023-05-03T18:22:47.783Z,2.64
2023-05-03T18:23:47.839Z,2.99
2023-05-03T18:24:47.870Z,2.79
2023-05-03T18:25:47.925Z,2.83
2023-05-03T18:26:48.101Z,2.87
2023-05-03T18:27:47.996Z,2.80
2023-05-03T18:28:48.042Z,2.82
2023-05-03T18:29:48.088Z,3.03
2023-05-03T18:30:48.128Z,2.83
2023-05-03T18:31:48.193Z,2.24
2023-05-03T18:32:48.316Z,2.38
2023-05-03T18:33:48.261Z,2.67
2023-05-03T18:34:48.340Z,3.27